aviador You're here:

KPWT Decoded Metar

BREMERTON NTNL in WA, USA
Report Time2018-01-19 15:56:00
UTC Time2018-01-19 17:00:08
Flight Rules mvfr MVFR
Wind190° at 09 kt
W.Decomp.*RWY 20: 7.8 kt HW 4.5 kt LCW
W.Rank190° ranks 1
Current wind is above 190° avg. (8.3)
Visibility9999 m
Phenomena:Light Rain
Clouds:Overcast 013 Hf
Expected CloudBase > 400 ft AGL from Temp-Dew spread
Ceiling1,300 ft
Temp04°C (ISA -10)
Dew Point03°C (93% RH)
AAT-0.7°C
QNH1011 hPa
Density Alt-561 ft
Elevation482 ft
Report Wrong Elevation
Raw Report
METAR KPWT 191556Z AUTO 19009KT 10SM -RA OVC013 04/03 A2985 RMK AO2
RAE23B56 SLP125 P0000 T00440033=

Extra information for KPWT:More info

Metar Taf Metar & Taf Last 4 Metars F.Rules Stats Wind Profile Meteogram Temp Stats Airport Information Weather charts Add Link Nearby VenuesMetar ALERT Operation Metar Decoded Social comments

AIRNAV info for KPWT